sensor_id;sensor_type;location;lat;lon;timestamp;pressure;altitude;pressure_sealevel;temperature;humidity
5574;BME280;2563;52.242;7.956;2022-12-19T00:01:40;101379.03;;;0.01;100.00
5574;BME280;2563;52.242;7.956;2022-12-19T00:04:08;101374.88;;;0.03;100.00
5574;BME280;2563;52.242;7.956;2022-12-19T00:06:35;101354.63;;;0.03;100.00
5574;BME280;2563;52.242;7.956;2022-12-19T00:09:00;101356.56;;;0.10;100.00
5574;BME280;2563;52.242;7.956;2022-12-19T00:11:27;101354.06;;;0.12;100.00
5574;BME280;2563;52.242;7.956;2022-12-19T00:13:53;101347.28;;;0.11;100.00
5574;BME280;2563;52.242;7.956;2022-12-19T00:16:23;101343.00;;;0.08;100.00
5574;BME280;2563;52.242;7.956;2022-12-19T00:18:50;101336.44;;;0.15;100.00
5574;BME280;2563;52.242;7.956;2022-12-19T00:21:18;101329.03;;;0.21;100.00
5574;BME280;2563;52.242;7.956;2022-12-19T00:23:44;101320.50;;;0.17;100.00
5574;BME280;2563;52.242;7.956;2022-12-19T00:26:12;101300.09;;;0.13;100.00
5574;BME280;2563;52.242;7.956;2022-12-19T00:28:39;101304.44;;;0.17;100.00
5574;BME280;2563;52.242;7.956;2022-12-19T00:31:05;101306.94;;;0.15;100.00
5574;BME280;2563;52.242;7.956;2022-12-19T00:33:31;101287.88;;;0.27;100.00
5574;BME280;2563;52.242;7.956;2022-12-19T00:36:00;101286.91;;;0.23;100.00
5574;BME280;2563;52.242;7.956;2022-12-19T00:38:27;101272.56;;;0.24;100.00
5574;BME280;2563;52.242;7.956;2022-12-19T00:40:53;101264.16;;;0.25;100.00
5574;BME280;2563;52.242;7.956;2022-12-19T00:43:18;101262.44;;;0.24;100.00
5574;BME280;2563;52.242;7.956;2022-12-19T00:45:43;101253.19;;;0.24;100.00
5574;BME280;2563;52.242;7.956;2022-12-19T00:48:09;101252.44;;;0.27;100.00
5574;BME280;2563;52.242;7.956;2022-12-19T00:50:34;101249.13;;;0.29;100.00
5574;BME280;2563;52.242;7.956;2022-12-19T00:53:00;101232.50;;;0.39;100.00
5574;BME280;2563;52.242;7.956;2022-12-19T00:55:25;101230.66;;;0.33;100.00
5574;BME280;2563;52.242;7.956;2022-12-19T00:57:50;101228.81;;;0.28;100.00
5574;BME280;2563;52.242;7.956;2022-12-19T01:00:16;101224.16;;;0.41;100.00
5574;BME280;2563;52.242;7.956;2022-12-19T01:02:42;101234.00;;;0.32;100.00
5574;BME280;2563;52.242;7.956;2022-12-19T01:05:08;101223.94;;;0.34;100.00
5574;BME280;2563;52.242;7.956;2022-12-19T01:07:34;101222.13;;;0.60;100.00
5574;BME280;2563;52.242;7.956;2022-12-19T01:10:00;101222.81;;;0.54;100.00
5574;BME280;2563;52.242;7.956;2022-12-19T01:12:26;101222.81;;;0.54;100.00
5574;BME280;2563;52.242;7.956;2022-12-19T01:15:11;101215.38;;;0.60;100.00
5574;BME280;2563;52.242;7.956;2022-12-19T01:17:36;101190.31;;;0.71;100.00
5574;BME280;2563;52.242;7.956;2022-12-19T01:20:02;101184.47;;;0.74;100.00
5574;BME280;2563;52.242;7.956;2022-12-19T01:22:28;101179.34;;;0.71;100.00
5574;BME280;2563;52.242;7.956;2022-12-19T01:24:56;101150.63;;;0.72;100.00
5574;BME280;2563;52.242;7.956;2022-12-19T01:27:21;101152.44;;;0.76;100.00
5574;BME280;2563;52.242;7.956;2022-12-19T01:29:46;101153.28;;;0.75;100.00
5574;BME280;2563;52.242;7.956;2022-12-19T01:32:11;101140.34;;;0.99;100.00
5574;BME280;2563;52.242;7.956;2022-12-19T01:34:37;101151.34;;;0.99;100.00
5574;BME280;2563;52.242;7.956;2022-12-19T01:37:02;101123.97;;;0.86;100.00
5574;BME280;2563;52.242;7.956;2022-12-19T01:39:28;101151.19;;;0.93;100.00
5574;BME280;2563;52.242;7.956;2022-12-19T01:41:53;101138.19;;;0.79;100.00
5574;BME280;2563;52.242;7.956;2022-12-19T01:44:23;101145.06;;;0.85;100.00
5574;BME280;2563;52.242;7.956;2022-12-19T01:46:51;101126.06;;;1.02;100.00
5574;BME280;2563;52.242;7.956;2022-12-19T01:49:26;101114.16;;;0.98;100.00
5574;BME280;2563;52.242;7.956;2022-12-19T01:51:55;101128.63;;;1.04;100.00
5574;BME280;2563;52.242;7.956;2022-12-19T01:54:26;101114.91;;;0.96;100.00
5574;BME280;2563;52.242;7.956;2022-12-19T01:56:55;101120.94;;;0.99;100.00
5574;BME280;2563;52.242;7.956;2022-12-19T01:59:28;101100.25;;;1.19;100.00
5574;BME280;2563;52.242;7.956;2022-12-19T02:02:00;101112.72;;;1.10;100.00
5574;BME280;2563;52.242;7.956;2022-12-19T02:04:28;101101.00;;;1.15;100.00
5574;BME280;2563;52.242;7.956;2022-12-19T02:06:54;101080.03;;;1.22;100.00
5574;BME280;2563;52.242;7.956;2022-12-19T02:09:21;101085.94;;;1.21;100.00
5574;BME280;2563;52.242;7.956;2022-12-19T02:11:50;101088.38;;;1.16;100.00
5574;BME280;2563;52.242;7.956;2022-12-19T02:14:15;101061.22;;;1.11;100.00
5574;BME280;2563;52.242;7.956;2022-12-19T02:16:58;101047.63;;;1.09;100.00
5574;BME280;2563;52.242;7.956;2022-12-19T02:22:31;101035.50;;;0.95;100.00
5574;BME280;2563;52.242;7.956;2022-12-19T02:25:16;101041.66;;;1.06;100.00
5574;BME280;2563;52.242;7.956;2022-12-19T02:36:11;100992.63;;;1.04;100.00
5574;BME280;2563;52.242;7.956;2022-12-19T02:38:49;100992.56;;;1.01;100.00
5574;BME280;2563;52.242;7.956;2022-12-19T02:41:39;100988.38;;;1.05;100.00
5574;BME280;2563;52.242;7.956;2022-12-19T02:44:19;101022.19;;;1.04;100.00
5574;BME280;2563;52.242;7.956;2022-12-19T02:46:47;101002.81;;;1.08;100.00
5574;BME280;2563;52.242;7.956;2022-12-19T02:49:14;100985.16;;;1.12;100.00
5574;BME280;2563;52.242;7.956;2022-12-19T02:51:39;100983.41;;;1.08;100.00
5574;BME280;2563;52.242;7.956;2022-12-19T02:54:05;100975.97;;;1.16;100.00
5574;BME280;2563;52.242;7.956;2022-12-19T03:04:51;100953.09;;;1.14;100.00
5574;BME280;2563;52.242;7.956;2022-12-19T03:10:18;100931.41;;;1.27;100.00
5574;BME280;2563;52.242;7.956;2022-12-19T03:12:55;100934.06;;;1.33;100.00
5574;BME280;2563;52.242;7.956;2022-12-19T03:15:22;100923.97;;;1.36;100.00
5574;BME280;2563;52.242;7.956;2022-12-19T03:17:49;100929.34;;;1.52;100.00
5574;BME280;2563;52.242;7.956;2022-12-19T03:20:27;100905.56;;;1.46;100.00
5574;BME280;2563;52.242;7.956;2022-12-19T03:22:56;100910.56;;;1.43;100.00
5574;BME280;2563;52.242;7.956;2022-12-19T03:25:23;100893.81;;;1.52;100.00
5574;BME280;2563;52.242;7.956;2022-12-19T03:27:50;100880.31;;;1.53;100.00
5574;BME280;2563;52.242;7.956;2022-12-19T03:30:18;100885.38;;;1.51;100.00
5574;BME280;2563;52.242;7.956;2022-12-19T03:32:45;100872.72;;;1.54;100.00
5574;BME280;2563;52.242;7.956;2022-12-19T03:35:24;100874.38;;;1.52;100.00
5574;BME280;2563;52.242;7.956;2022-12-19T03:37:57;100878.59;;;1.52;100.00
5574;BME280;2563;52.242;7.956;2022-12-19T03:40:25;100855.78;;;1.52;100.00
5574;BME280;2563;52.242;7.956;2022-12-19T03:42:56;100857.56;;;1.56;100.00
5574;BME280;2563;52.242;7.956;2022-12-19T03:48:15;100844.09;;;1.61;100.00
5574;BME280;2563;52.242;7.956;2022-12-19T03:50:55;100849.22;;;1.64;100.00
5574;BME280;2563;52.242;7.956;2022-12-19T03:53:37;100855.22;;;1.68;100.00
5574;BME280;2563;52.242;7.956;2022-12-19T03:59:05;100845.06;;;1.68;100.00
5574;BME280;2563;52.242;7.956;2022-12-19T04:01:33;100839.16;;;1.69;100.00
5574;BME280;2563;52.242;7.956;2022-12-19T04:04:00;100847.56;;;1.66;100.00
5574;BME280;2563;52.242;7.956;2022-12-19T04:06:29;100829.88;;;1.71;100.00
5574;BME280;2563;52.242;7.956;2022-12-19T04:08:56;100824.81;;;1.71;100.00
5574;BME280;2563;52.242;7.956;2022-12-19T04:11:24;100814.63;;;1.68;100.00
5574;BME280;2563;52.242;7.956;2022-12-19T04:13:55;100812.97;;;1.70;100.00
5574;BME280;2563;52.242;7.956;2022-12-19T04:19:02;100802.75;;;1.67;100.00
5574;BME280;2563;52.242;7.956;2022-12-19T04:21:43;100803.72;;;1.74;100.00
5574;BME280;2563;52.242;7.956;2022-12-19T04:24:17;100788.56;;;1.78;100.00
5574;BME280;2563;52.242;7.956;2022-12-19T04:26:46;100790.25;;;1.78;100.00
5574;BME280;2563;52.242;7.956;2022-12-19T04:29:31;100775.84;;;1.75;100.00
5574;BME280;2563;52.242;7.956;2022-12-19T04:32:01;100768.25;;;1.78;100.00
5574;BME280;2563;52.242;7.956;2022-12-19T04:34:27;100772.56;;;1.82;100.00
5574;BME280;2563;52.242;7.956;2022-12-19T04:36:55;100772.50;;;1.79;100.00
5574;BME280;2563;52.242;7.956;2022-12-19T04:39:21;100765.91;;;1.90;100.00
5574;BME280;2563;52.242;7.956;2022-12-19T04:41:46;100764.25;;;1.92;100.00
5574;BME280;2563;52.242;7.956;2022-12-19T04:44:12;100762.66;;;2.01;100.00
5574;BME280;2563;52.242;7.956;2022-12-19T04:46:37;100740.72;;;2.06;100.00
5574;BME280;2563;52.242;7.956;2022-12-19T04:49:02;100744.19;;;2.11;100.00
5574;BME280;2563;52.242;7.956;2022-12-19T04:51:28;100738.28;;;2.12;100.00
5574;BME280;2563;52.242;7.956;2022-12-19T04:53:53;100737.50;;;2.18;100.00
5574;BME280;2563;52.242;7.956;2022-12-19T04:56:21;100722.38;;;2.25;100.00
5574;BME280;2563;52.242;7.956;2022-12-19T04:58:47;100709.63;;;2.22;100.00
5574;BME280;2563;52.242;7.956;2022-12-19T05:01:12;100709.50;;;2.13;100.00
5574;BME280;2563;52.242;7.956;2022-12-19T05:03:38;100713.72;;;2.11;100.00
5574;BME280;2563;52.242;7.956;2022-12-19T05:06:10;100709.56;;;2.18;100.00
5574;BME280;2563;52.242;7.956;2022-12-19T05:08:37;100704.47;;;2.18;100.00
5574;BME280;2563;52.242;7.956;2022-12-19T05:11:05;100699.41;;;2.16;100.00
5574;BME280;2563;52.242;7.956;2022-12-19T05:13:31;100705.34;;;2.18;100.00
5574;BME280;2563;52.242;7.956;2022-12-19T05:15:58;100696.03;;;2.19;100.00
5574;BME280;2563;52.242;7.956;2022-12-19T05:18:24;100696.09;;;2.23;100.00
5574;BME280;2563;52.242;7.956;2022-12-19T05:20:50;100696.09;;;2.25;100.00
5574;BME280;2563;52.242;7.956;2022-12-19T05:23:16;100693.56;;;2.23;100.00
5574;BME280;2563;52.242;7.956;2022-12-19T05:25:41;100695.25;;;2.24;100.00
5574;BME280;2563;52.242;7.956;2022-12-19T05:28:07;100683.53;;;2.36;100.00
5574;BME280;2563;52.242;7.956;2022-12-19T05:30:32;100686.88;;;2.30;100.00
5574;BME280;2563;52.242;7.956;2022-12-19T05:32:57;100690.25;;;2.29;100.00
5574;BME280;2563;52.242;7.956;2022-12-19T05:35:23;100687.75;;;2.33;100.00
5574;BME280;2563;52.242;7.956;2022-12-19T05:37:48;100675.06;;;2.33;100.00
5574;BME280;2563;52.242;7.956;2022-12-19T05:40:13;100682.66;;;2.30;100.00
5574;BME280;2563;52.242;7.956;2022-12-19T05:42:39;100686.91;;;2.34;100.00
5574;BME280;2563;52.242;7.956;2022-12-19T05:45:05;100688.59;;;2.32;100.00
5574;BME280;2563;52.242;7.956;2022-12-19T05:47:30;100672.47;;;2.32;100.00
5574;BME280;2563;52.242;7.956;2022-12-19T05:49:56;100679.44;;;2.47;100.00
5574;BME280;2563;52.242;7.956;2022-12-19T05:52:21;100687.09;;;2.50;100.00
5574;BME280;2563;52.242;7.956;2022-12-19T05:54:48;100684.59;;;2.53;100.00
5574;BME280;2563;52.242;7.956;2022-12-19T05:57:14;100684.53;;;2.48;100.00
5574;BME280;2563;52.242;7.956;2022-12-19T05:59:39;100678.69;;;2.54;100.00
5574;BME280;2563;52.242;7.956;2022-12-19T06:02:04;100676.13;;;2.55;100.00
5574;BME280;2563;52.242;7.956;2022-12-19T06:04:30;100677.84;;;2.58;100.00
5574;BME280;2563;52.242;7.956;2022-12-19T06:06:55;100672.81;;;2.61;100.00
5574;BME280;2563;52.242;7.956;2022-12-19T06:09:20;100667.78;;;2.67;100.00
5574;BME280;2563;52.242;7.956;2022-12-19T06:11:46;100660.25;;;2.73;100.00
5574;BME280;2563;52.242;7.956;2022-12-19T06:14:11;100661.06;;;2.72;100.00
5574;BME280;2563;52.242;7.956;2022-12-19T06:16:36;100666.16;;;2.71;100.00
5574;BME280;2563;52.242;7.956;2022-12-19T06:19:02;100660.16;;;2.67;100.00
5574;BME280;2563;52.242;7.956;2022-12-19T06:21:27;100658.59;;;2.82;100.00
5574;BME280;2563;52.242;7.956;2022-12-19T06:23:53;100648.53;;;2.94;100.00
5574;BME280;2563;52.242;7.956;2022-12-19T06:26:19;100648.53;;;2.94;100.00
5574;BME280;2563;52.242;7.956;2022-12-19T06:28:45;100647.72;;;2.95;100.00
5574;BME280;2563;52.242;7.956;2022-12-19T06:31:11;100649.50;;;3.05;100.00
5574;BME280;2563;52.242;7.956;2022-12-19T06:33:37;100647.84;;;3.10;100.00
5574;BME280;2563;52.242;7.956;2022-12-19T06:36:10;100641.94;;;3.11;100.00
5574;BME280;2563;52.242;7.956;2022-12-19T06:38:38;100637.72;;;3.16;100.00
5574;BME280;2563;52.242;7.956;2022-12-19T06:41:03;100647.94;;;3.21;100.00
5574;BME280;2563;52.242;7.956;2022-12-19T06:43:47;100646.22;;;3.18;100.00
5574;BME280;2563;52.242;7.956;2022-12-19T06:46:13;100641.97;;;3.19;100.00
5574;BME280;2563;52.242;7.956;2022-12-19T06:48:38;100651.38;;;3.29;100.00
5574;BME280;2563;52.242;7.956;2022-12-19T06:51:04;100647.13;;;3.27;100.00
5574;BME280;2563;52.242;7.956;2022-12-19T06:53:29;100633.59;;;3.34;100.00
5574;BME280;2563;52.242;7.956;2022-12-19T06:55:57;100637.78;;;3.27;100.00
5574;BME280;2563;52.242;7.956;2022-12-19T06:58:23;100636.06;;;3.25;100.00
5574;BME280;2563;52.242;7.956;2022-12-19T07:00:49;100626.78;;;3.30;100.00
5574;BME280;2563;52.242;7.956;2022-12-19T07:03:20;100625.06;;;3.26;100.00
5574;BME280;2563;52.242;7.956;2022-12-19T07:05:47;100626.81;;;3.33;100.00
5574;BME280;2563;52.242;7.956;2022-12-19T07:08:12;100633.63;;;3.38;100.00
5574;BME280;2563;52.242;7.956;2022-12-19T07:10:38;100623.47;;;3.43;100.00
5574;BME280;2563;52.242;7.956;2022-12-19T07:13:03;100626.00;;;3.38;100.00
5574;BME280;2563;52.242;7.956;2022-12-19T07:15:30;100623.50;;;3.49;100.00
5574;BME280;2563;52.242;7.956;2022-12-19T07:17:58;100621.81;;;3.45;100.00
5574;BME280;2563;52.242;7.956;2022-12-19T07:20:24;100626.91;;;3.51;100.00
5574;BME280;2563;52.242;7.956;2022-12-19T07:22:50;100615.06;;;3.53;100.00
5574;BME280;2563;52.242;7.956;2022-12-19T07:25:16;100617.63;;;3.58;100.00
5574;BME280;2563;52.242;7.956;2022-12-19T07:27:42;100623.63;;;3.71;100.00
5574;BME280;2563;52.242;7.956;2022-12-19T07:30:08;100627.88;;;3.73;100.00
5574;BME280;2563;52.242;7.956;2022-12-19T07:32:34;100632.13;;;3.74;100.00
5574;BME280;2563;52.242;7.956;2022-12-19T07:34:59;100632.16;;;3.80;100.00
5574;BME280;2563;52.242;7.956;2022-12-19T07:37:25;100642.34;;;3.82;100.00
5574;BME280;2563;52.242;7.956;2022-12-19T07:39:50;100645.81;;;3.93;100.00
5574;BME280;2563;52.242;7.956;2022-12-19T07:42:17;100647.50;;;3.88;100.00
5574;BME280;2563;52.242;7.956;2022-12-19T07:44:42;100650.88;;;3.90;100.00
5574;BME280;2563;52.242;7.956;2022-12-19T07:47:08;100650.03;;;3.94;100.00
5574;BME280;2563;52.242;7.956;2022-12-19T07:49:33;100656.00;;;3.96;100.00
5574;BME280;2563;52.242;7.956;2022-12-19T07:51:59;100655.16;;;3.96;100.00
5574;BME280;2563;52.242;7.956;2022-12-19T07:54:24;100666.19;;;3.96;100.00
5574;BME280;2563;52.242;7.956;2022-12-19T07:56:51;100673.91;;;4.07;100.00
5574;BME280;2563;52.242;7.956;2022-12-19T07:59:16;100678.09;;;4.07;100.00
5574;BME280;2563;52.242;7.956;2022-12-19T08:01:41;100678.16;;;4.13;100.00
5574;BME280;2563;52.242;7.956;2022-12-19T08:04:07;100674.78;;;4.17;100.00
5574;BME280;2563;52.242;7.956;2022-12-19T08:06:32;100680.72;;;4.23;100.00
5574;BME280;2563;52.242;7.956;2022-12-19T08:08:57;100690.06;;;4.26;100.00
5574;BME280;2563;52.242;7.956;2022-12-19T08:11:23;100700.25;;;4.26;100.00
5574;BME280;2563;52.242;7.956;2022-12-19T08:13:56;100706.22;;;4.28;100.00
5574;BME280;2563;52.242;7.956;2022-12-19T08:16:24;100690.97;;;4.31;100.00
5574;BME280;2563;52.242;7.956;2022-12-19T08:18:49;100699.44;;;4.30;100.00
5574;BME280;2563;52.242;7.956;2022-12-19T08:21:15;100713.91;;;4.37;100.00
5574;BME280;2563;52.242;7.956;2022-12-19T08:23:40;100725.81;;;4.38;100.00
5574;BME280;2563;52.242;7.956;2022-12-19T08:26:09;100748.75;;;4.34;100.00
5574;BME280;2563;52.242;7.956;2022-12-19T08:28:34;100771.69;;;4.41;100.00
5574;BME280;2563;52.242;7.956;2022-12-19T08:31:06;100785.28;;;4.40;100.00
5574;BME280;2563;52.242;7.956;2022-12-19T08:33:32;100792.13;;;4.51;100.00
5574;BME280;2563;52.242;7.956;2022-12-19T08:35:57;100803.22;;;4.59;100.00
5574;BME280;2563;52.242;7.956;2022-12-19T08:38:22;100814.19;;;4.50;100.00
5574;BME280;2563;52.242;7.956;2022-12-19T08:40:52;100824.41;;;4.50;100.00
5574;BME280;2563;52.242;7.956;2022-12-19T08:43:19;100832.94;;;4.54;100.00
5574;BME280;2563;52.242;7.956;2022-12-19T08:45:47;100839.72;;;4.56;100.00
5574;BME280;2563;52.242;7.956;2022-12-19T08:48:13;100849.09;;;4.60;100.00
5574;BME280;2563;52.242;7.956;2022-12-19T08:50:38;100872.09;;;4.69;100.00
5574;BME280;2563;52.242;7.956;2022-12-19T08:53:03;100873.81;;;4.75;100.00
5574;BME280;2563;52.242;7.956;2022-12-19T08:55:29;100881.47;;;4.72;100.00
5574;BME280;2563;52.242;7.956;2022-12-19T08:57:54;100882.28;;;4.71;100.00
5574;BME280;2563;52.242;7.956;2022-12-19T09:00:20;100886.59;;;4.83;100.00
5574;BME280;2563;52.242;7.956;2022-12-19T09:02:46;100894.31;;;4.94;100.00
5574;BME280;2563;52.242;7.956;2022-12-19T09:05:11;100894.31;;;5.00;100.00
5574;BME280;2563;52.242;7.956;2022-12-19T09:07:37;100917.31;;;5.01;100.00
5574;BME280;2563;52.242;7.956;2022-12-19T09:10:04;100931.78;;;5.04;100.00
5574;BME280;2563;52.242;7.956;2022-12-19T09:12:29;100930.09;;;5.12;100.00
5574;BME280;2563;52.242;7.956;2022-12-19T09:14:55;100928.44;;;5.17;100.00
5574;BME280;2563;52.242;7.956;2022-12-19T09:17:20;100928.41;;;5.14;100.00
5574;BME280;2563;52.242;7.956;2022-12-19T09:19:45;100948.84;;;5.17;100.00
5574;BME280;2563;52.242;7.956;2022-12-19T09:22:11;100950.56;;;5.18;100.00
5574;BME280;2563;52.242;7.956;2022-12-19T09:24:36;100943.75;;;5.23;100.00
5574;BME280;2563;52.242;7.956;2022-12-19T09:27:01;100952.28;;;5.28;100.00
5574;BME280;2563;52.242;7.956;2022-12-19T09:29:27;100953.13;;;5.29;100.00
5574;BME280;2563;52.242;7.956;2022-12-19T09:31:52;100965.09;;;5.38;100.00
5574;BME280;2563;52.242;7.956;2022-12-19T09:34:18;100967.63;;;5.38;100.00
5574;BME280;2563;52.242;7.956;2022-12-19T09:36:43;100977.03;;;5.42;100.00
5574;BME280;2563;52.242;7.956;2022-12-19T09:39:10;100980.41;;;5.45;100.00
5574;BME280;2563;52.242;7.956;2022-12-19T09:47:00;101000.03;;;5.51;100.00
5574;BME280;2563;52.242;7.956;2022-12-19T09:49:37;100994.94;;;5.54;100.00
5574;BME280;2563;52.242;7.956;2022-12-19T09:52:07;101000.88;;;5.54;100.00
5574;BME280;2563;52.242;7.956;2022-12-19T09:55:21;101008.56;;;5.56;100.00
5574;BME280;2563;52.242;7.956;2022-12-19T09:57:56;101006.91;;;5.63;100.00
5574;BME280;2563;52.242;7.956;2022-12-19T10:00:23;101002.63;;;5.62;100.00
5574;BME280;2563;52.242;7.956;2022-12-19T10:02:56;101004.34;;;5.66;100.00
5574;BME280;2563;52.242;7.956;2022-12-19T10:05:37;101010.28;;;5.69;100.00
5574;BME280;2563;52.242;7.956;2022-12-19T10:08:15;101006.94;;;5.75;100.00
5574;BME280;2563;52.242;7.956;2022-12-19T10:16:02;101017.13;;;5.76;100.00
5574;BME280;2563;52.242;7.956;2022-12-19T10:18:52;101006.06;;;5.76;100.00
5574;BME280;2563;52.242;7.956;2022-12-19T10:26:45;100993.34;;;5.93;100.00
5574;BME280;2563;52.242;7.956;2022-12-19T10:34:42;100972.13;;;6.11;100.00
5574;BME280;2563;52.242;7.956;2022-12-19T10:45:49;100977.22;;;6.20;100.00
5574;BME280;2563;52.242;7.956;2022-12-19T10:48:18;100975.50;;;6.22;100.00
5574;BME280;2563;52.242;7.956;2022-12-19T10:50:44;100962.75;;;6.24;100.00
5574;BME280;2563;52.242;7.956;2022-12-19T10:53:12;100958.50;;;6.23;100.00
5574;BME280;2563;52.242;7.956;2022-12-19T11:03:30;100948.25;;;6.29;100.00
5574;BME280;2563;52.242;7.956;2022-12-19T11:05:57;100938.88;;;6.34;100.00
5574;BME280;2563;52.242;7.956;2022-12-19T11:08:26;100936.31;;;6.35;100.00
5574;BME280;2563;52.242;7.956;2022-12-19T11:11:09;100928.63;;;6.42;100.00
5574;BME280;2563;52.242;7.956;2022-12-19T11:13:45;100926.09;;;6.45;100.00
5574;BME280;2563;52.242;7.956;2022-12-19T11:16:11;100906.47;;;6.50;100.00
5574;BME280;2563;52.242;7.956;2022-12-19T11:18:42;100907.34;;;6.47;100.00
5574;BME280;2563;52.242;7.956;2022-12-19T11:21:27;100887.72;;;6.46;100.00
5574;BME280;2563;52.242;7.956;2022-12-19T11:24:03;100882.63;;;6.49;100.00
5574;BME280;2563;52.242;7.956;2022-12-19T11:26:42;100874.94;;;6.49;100.00
5574;BME280;2563;52.242;7.956;2022-12-19T11:31:46;100875.81;;;6.51;100.00
5574;BME280;2563;52.242;7.956;2022-12-19T11:34:21;100868.97;;;6.50;100.00
5574;BME280;2563;52.242;7.956;2022-12-19T11:39:44;100859.53;;;6.65;100.00
5574;BME280;2563;52.242;7.956;2022-12-19T11:42:29;100862.09;;;6.68;100.00
5574;BME280;2563;52.242;7.956;2022-12-19T11:45:12;100858.69;;;6.69;100.00
5574;BME280;2563;52.242;7.956;2022-12-19T11:48:02;100853.56;;;6.70;100.00
5574;BME280;2563;52.242;7.956;2022-12-19T11:50:42;100847.59;;;6.71;100.00
5574;BME280;2563;52.242;7.956;2022-12-19T11:53:16;100840.78;;;6.69;100.00
5574;BME280;2563;52.242;7.956;2022-12-19T11:56:04;100836.53;;;6.71;100.00
5574;BME280;2563;52.242;7.956;2022-12-19T11:58:32;100835.63;;;6.75;100.00
5574;BME280;2563;52.242;7.956;2022-12-19T12:05:55;100823.69;;;6.80;100.00
5574;BME280;2563;52.242;7.956;2022-12-19T12:08:43;100827.13;;;6.76;100.00
5574;BME280;2563;52.242;7.956;2022-12-19T12:22:34;100859.53;;;6.71;100.00
5574;BME280;2563;52.242;7.956;2022-12-19T12:45:22;100917.47;;;6.86;100.00
5574;BME280;2563;52.242;7.956;2022-12-19T12:47:51;100902.94;;;6.89;100.00
5574;BME280;2563;52.242;7.956;2022-12-19T12:50:20;100907.22;;;6.90;100.00
5574;BME280;2563;52.242;7.956;2022-12-19T12:52:52;100909.78;;;6.90;100.00
5574;BME280;2563;52.242;7.956;2022-12-19T12:55:36;100920.84;;;6.94;100.00
5574;BME280;2563;52.242;7.956;2022-12-19T12:58:05;100926.78;;;7.05;100.00
5574;BME280;2563;52.242;7.956;2022-12-19T13:00:32;100923.38;;;7.08;100.00
5574;BME280;2563;52.242;7.956;2022-12-19T13:03:08;100930.22;;;7.02;100.00
5574;BME280;2563;52.242;7.956;2022-12-19T13:05:53;100925.06;;;7.06;100.00
5574;BME280;2563;52.242;7.956;2022-12-19T13:08:38;100926.81;;;7.00;100.00
5574;BME280;2563;52.242;7.956;2022-12-19T13:11:33;100934.47;;;7.10;100.00
5574;BME280;2563;52.242;7.956;2022-12-19T13:24:57;100912.28;;;7.07;100.00
5574;BME280;2563;52.242;7.956;2022-12-19T13:27:38;100909.69;;;7.09;100.00
5574;BME280;2563;52.242;7.956;2022-12-19T13:45:57;100884.06;;;7.19;100.00
5574;BME280;2563;52.242;7.956;2022-12-19T13:48:34;100865.31;;;7.19;100.00
5574;BME280;2563;52.242;7.956;2022-12-19T13:51:05;100832.03;;;7.16;100.00
5574;BME280;2563;52.242;7.956;2022-12-19T13:53:31;100805.63;;;7.14;100.00
5574;BME280;2563;52.242;7.956;2022-12-19T13:56:08;100804.72;;;7.21;100.00
5574;BME280;2563;52.242;7.956;2022-12-19T14:03:47;100738.19;;;7.13;100.00
5574;BME280;2563;52.242;7.956;2022-12-19T14:06:28;100727.91;;;7.21;100.00
5574;BME280;2563;52.242;7.956;2022-12-19T14:09:01;100714.19;;;7.27;100.00
5574;BME280;2563;52.242;7.956;2022-12-19T14:11:28;100709.84;;;7.36;100.00
5574;BME280;2563;52.242;7.956;2022-12-19T14:13:59;100702.25;;;7.27;100.00
5574;BME280;2563;52.242;7.956;2022-12-19T14:16:46;100686.88;;;7.27;100.00
5574;BME280;2563;52.242;7.956;2022-12-19T14:19:25;100691.97;;;7.33;100.00
5574;BME280;2563;52.242;7.956;2022-12-19T14:21:52;100673.09;;;7.45;100.00
5574;BME280;2563;52.242;7.956;2022-12-19T14:24:22;100668.88;;;7.38;100.00
5574;BME280;2563;52.242;7.956;2022-12-19T14:26:58;100668.84;;;7.42;100.00
5574;BME280;2563;52.242;7.956;2022-12-19T14:29:39;100669.69;;;7.43;100.00
5574;BME280;2563;52.242;7.956;2022-12-19T14:32:07;100677.38;;;7.43;100.00
5574;BME280;2563;52.242;7.956;2022-12-19T14:34:33;100678.22;;;7.45;100.00
5574;BME280;2563;52.242;7.956;2022-12-19T14:36:59;100685.81;;;7.51;100.00
5574;BME280;2563;52.242;7.956;2022-12-19T14:39:35;100689.22;;;7.52;100.00
5574;BME280;2563;52.242;7.956;2022-12-19T14:42:13;100703.78;;;7.46;100.00
5574;BME280;2563;52.242;7.956;2022-12-19T14:44:58;100713.19;;;7.48;100.00
5574;BME280;2563;52.242;7.956;2022-12-19T14:47:32;100725.16;;;7.45;100.00
5574;BME280;2563;52.242;7.956;2022-12-19T14:49:59;100735.44;;;7.39;100.00
5574;BME280;2563;52.242;7.956;2022-12-19T14:52:42;100733.69;;;7.44;100.00
5574;BME280;2563;52.242;7.956;2022-12-19T14:57:47;100732.75;;;7.53;100.00
5574;BME280;2563;52.242;7.956;2022-12-19T15:00:30;100730.22;;;7.50;100.00
5574;BME280;2563;52.242;7.956;2022-12-19T15:02:59;100726.03;;;7.41;100.00
5574;BME280;2563;52.242;7.956;2022-12-19T15:05:26;100730.31;;;7.39;100.00
5574;BME280;2563;52.242;7.956;2022-12-19T15:07:55;100720.03;;;7.44;100.00
5574;BME280;2563;52.242;7.956;2022-12-19T15:10:24;100724.38;;;7.36;100.00
5574;BME280;2563;52.242;7.956;2022-12-19T15:12:55;100724.34;;;7.39;100.00
5574;BME280;2563;52.242;7.956;2022-12-19T15:18:26;100696.81;;;7.61;100.00
5574;BME280;2563;52.242;7.956;2022-12-19T15:20:55;100690.84;;;7.62;100.00
5574;BME280;2563;52.242;7.956;2022-12-19T15:23:21;100678.88;;;7.61;100.00
5574;BME280;2563;52.242;7.956;2022-12-19T15:25:47;100684.06;;;7.58;100.00
5574;BME280;2563;52.242;7.956;2022-12-19T15:28:18;100682.47;;;7.44;100.00
5574;BME280;2563;52.242;7.956;2022-12-19T15:30:47;100660.25;;;7.46;100.00
5574;BME280;2563;52.242;7.956;2022-12-19T15:33:16;100645.72;;;7.50;100.00
5574;BME280;2563;52.242;7.956;2022-12-19T15:35:42;100634.59;;;7.54;100.00
5574;BME280;2563;52.242;7.956;2022-12-19T15:38:08;100605.53;;;7.55;100.00
5574;BME280;2563;52.242;7.956;2022-12-19T15:40:36;100588.50;;;7.53;100.00
5574;BME280;2563;52.242;7.956;2022-12-19T15:43:02;100574.84;;;7.51;100.00
5574;BME280;2563;52.242;7.956;2022-12-19T15:45:29;100545.84;;;7.49;100.00
5574;BME280;2563;52.242;7.956;2022-12-19T15:47:55;100525.31;;;7.52;100.00
5574;BME280;2563;52.242;7.956;2022-12-19T15:50:28;100485.19;;;7.52;100.00